createdAt,value
2017-11-28T00:00:50.939Z,90.57
2017-11-28T00:03:18.474Z,90.49
2017-11-28T00:05:46.056Z,90.33
2017-11-28T00:08:13.619Z,90.31
2017-11-28T00:10:41.179Z,90.31
2017-11-28T00:13:08.760Z,90.18
2017-11-28T00:15:36.328Z,89.73
2017-11-28T00:18:03.910Z,89.75
2017-11-28T00:20:31.494Z,89.66
2017-11-28T00:22:59.063Z,89.74
2017-11-28T00:25:26.615Z,89.65
2017-11-28T00:27:54.195Z,89.50
2017-11-28T00:30:21.735Z,89.33
2017-11-28T00:32:49.297Z,89.51
2017-11-28T00:35:16.896Z,89.66
2017-11-28T00:37:44.469Z,89.67
2017-11-28T00:40:12.024Z,89.66
2017-11-28T00:42:39.614Z,89.85
2017-11-28T00:45:07.229Z,90.07
2017-11-28T00:47:34.957Z,90.14
2017-11-28T00:50:02.655Z,90.22
2017-11-28T00:52:30.397Z,89.97
2017-11-28T00:54:57.990Z,89.53
2017-11-28T00:57:25.687Z,89.37
2017-11-28T00:59:53.328Z,89.35
2017-11-28T01:02:20.988Z,89.45
2017-11-28T01:04:49.511Z,89.10
2017-11-28T01:07:17.132Z,89.38
2017-11-28T01:09:44.823Z,89.56
2017-11-28T01:12:12.493Z,89.63
2017-11-28T01:14:40.113Z,89.76
2017-11-28T01:17:07.729Z,89.97
2017-11-28T01:19:35.386Z,90.19
2017-11-28T01:22:03.056Z,90.21
2017-11-28T01:24:30.717Z,90.13
2017-11-28T01:26:58.466Z,90.19
2017-11-28T01:29:26.097Z,90.25
2017-11-28T01:31:54.660Z,90.30
2017-11-28T01:34:22.344Z,90.17
2017-11-28T01:36:49.984Z,90.19
2017-11-28T01:39:17.605Z,90.12
2017-11-28T01:41:45.288Z,90.08
2017-11-28T01:44:13.049Z,89.90
2017-11-28T01:46:40.677Z,89.58
2017-11-28T01:49:08.491Z,89.52
2017-11-28T01:51:36.238Z,89.59
2017-11-28T01:54:03.860Z,89.94
2017-11-28T01:56:31.574Z,89.79
2017-11-28T01:58:59.215Z,89.68
2017-11-28T02:01:26.825Z,89.42
2017-11-28T02:03:54.690Z,89.25
2017-11-28T02:06:22.296Z,89.44
2017-11-28T02:08:50.068Z,89.39
2017-11-28T02:11:17.745Z,89.47
2017-11-28T02:13:45.390Z,89.61
2017-11-28T02:16:13.065Z,89.46
2017-11-28T02:18:40.866Z,89.47
2017-11-28T02:21:08.716Z,89.58
2017-11-28T02:23:36.636Z,89.55
2017-11-28T02:26:04.592Z,89.21
2017-11-28T02:28:32.353Z,89.21
2017-11-28T02:31:00.192Z,89.22
2017-11-28T02:33:27.937Z,89.33
2017-11-28T02:35:55.688Z,89.47
2017-11-28T02:38:23.414Z,89.61
2017-11-28T02:41:02.985Z,89.27
2017-11-28T02:43:30.840Z,89.17
2017-11-28T02:45:58.633Z,89.34
2017-11-28T02:48:26.385Z,89.44
2017-11-28T02:50:54.089Z,89.53
2017-11-28T02:53:21.802Z,89.58
2017-11-28T02:55:51.085Z,89.38
2017-11-28T03:01:37.444Z,88.41
2017-11-28T03:04:05.236Z,88.37
2017-11-28T03:06:33.001Z,88.85
2017-11-28T03:09:12.493Z,88.86
2017-11-28T03:11:40.200Z,89.01
2017-11-28T03:14:12.526Z,88.86
2017-11-28T03:16:40.288Z,88.91
2017-11-28T03:19:19.500Z,88.66
2017-11-28T03:21:48.139Z,88.66
2017-11-28T03:24:25.730Z,88.54
2017-11-28T03:26:53.581Z,88.75
2017-11-28T03:29:22.148Z,88.92
2017-11-28T03:31:49.965Z,88.75
2017-11-28T03:34:18.545Z,88.60
2017-11-28T03:36:46.353Z,88.59
2017-11-28T03:39:14.156Z,88.59
2017-11-28T03:41:42.078Z,88.72
2017-11-28T03:47:22.862Z,88.98
2017-11-28T03:49:50.637Z,89.19
2017-11-28T03:52:18.500Z,89.16
2017-11-28T03:54:46.376Z,89.00
2017-11-28T03:57:14.179Z,89.29
2017-11-28T03:59:41.897Z,88.86
2017-11-28T04:02:09.862Z,88.67
2017-11-28T04:04:37.795Z,88.81
2017-11-28T04:07:05.527Z,88.88
2017-11-28T04:09:33.384Z,89.12
2017-11-28T04:12:01.168Z,89.10
2017-11-28T04:14:34.865Z,88.86
2017-11-28T04:17:02.574Z,88.80
2017-11-28T04:19:30.361Z,88.88
2017-11-28T04:21:58.265Z,88.54
2017-11-28T04:24:26.068Z,88.50
2017-11-28T04:26:53.948Z,88.65
2017-11-28T04:29:21.749Z,88.86
2017-11-28T04:31:49.460Z,88.60
2017-11-28T04:34:17.177Z,88.70
2017-11-28T04:36:45.073Z,88.20
2017-11-28T04:39:12.774Z,88.28
2017-11-28T04:41:40.569Z,88.27
2017-11-28T04:44:08.410Z,88.44
2017-11-28T04:46:36.203Z,88.37
2017-11-28T04:49:04.062Z,88.16
2017-11-28T04:51:42.617Z,88.19
2017-11-28T04:54:10.386Z,88.02
2017-11-28T04:56:40.977Z,88.18
2017-11-28T04:59:08.824Z,88.42
2017-11-28T05:01:36.528Z,88.51
2017-11-28T05:04:04.290Z,88.60
2017-11-28T05:06:32.067Z,88.49
2017-11-28T05:08:59.777Z,88.20
2017-11-28T05:11:27.637Z,88.74
2017-11-28T05:13:55.500Z,88.63
2017-11-28T05:16:23.288Z,88.66
2017-11-28T05:18:51.080Z,88.20
2017-11-28T05:21:18.949Z,88.40
2017-11-28T05:23:46.757Z,88.53
2017-11-28T05:26:14.539Z,88.89
2017-11-28T05:28:42.334Z,88.66
2017-11-28T05:31:10.135Z,88.66
2017-11-28T05:33:37.928Z,88.85
2017-11-28T05:36:05.693Z,88.79
2017-11-28T05:38:33.479Z,88.61
2017-11-28T05:41:01.241Z,88.78
2017-11-28T05:43:29.147Z,88.92
2017-11-28T05:45:56.912Z,88.84
2017-11-28T05:48:24.681Z,89.20
2017-11-28T05:50:52.377Z,89.06
2017-11-28T05:53:23.144Z,89.38
2017-11-28T05:55:50.937Z,89.08
2017-11-28T05:58:18.849Z,88.91
2017-11-28T06:00:52.156Z,89.18
2017-11-28T06:03:20.001Z,88.44
2017-11-28T06:05:47.789Z,88.37
2017-11-28T06:08:16.442Z,87.84
2017-11-28T06:10:44.355Z,88.76
2017-11-28T06:13:12.064Z,88.89
2017-11-28T06:15:39.967Z,88.42
2017-11-28T06:18:07.825Z,87.68
2017-11-28T06:20:35.554Z,88.24
2017-11-28T06:23:03.340Z,87.61
2017-11-28T06:25:31.112Z,87.28
2017-11-28T06:27:58.802Z,87.42
2017-11-28T06:30:26.664Z,87.39
2017-11-28T06:32:54.441Z,86.48
2017-11-28T06:35:22.228Z,87.02
2017-11-28T06:37:49.934Z,86.44
2017-11-28T06:40:17.737Z,86.31
2017-11-28T06:42:45.448Z,86.80
2017-11-28T06:45:13.236Z,86.17
2017-11-28T06:47:41.146Z,86.23
2017-11-28T06:50:08.886Z,86.54
2017-11-28T06:52:36.640Z,86.10
2017-11-28T06:55:04.324Z,86.00
2017-11-28T06:57:32.130Z,86.03
2017-11-28T07:00:04.701Z,85.36
2017-11-28T07:02:34.023Z,85.87
2017-11-28T07:05:01.732Z,86.42
2017-11-28T07:07:29.510Z,86.01
2017-11-28T07:09:57.188Z,85.39
2017-11-28T07:12:24.917Z,86.10
2017-11-28T07:14:52.609Z,85.55
2017-11-28T07:17:20.420Z,85.33
2017-11-28T07:19:48.109Z,85.96
2017-11-28T07:22:15.809Z,85.74
2017-11-28T07:24:43.661Z,85.70
2017-11-28T07:27:11.373Z,85.63
2017-11-28T07:29:39.159Z,85.09
2017-11-28T07:32:07.017Z,85.10
2017-11-28T07:34:34.785Z,85.02
2017-11-28T07:37:02.619Z,85.26
2017-11-28T07:39:30.323Z,84.81
2017-11-28T07:41:58.036Z,85.04
2017-11-28T07:44:25.797Z,84.79
2017-11-28T07:46:53.444Z,85.08
2017-11-28T07:49:21.296Z,84.78
2017-11-28T07:51:49.014Z,85.28
2017-11-28T07:54:16.640Z,84.86
2017-11-28T07:56:44.405Z,84.25
2017-11-28T07:59:12.137Z,84.86
2017-11-28T08:01:39.989Z,84.39
2017-11-28T08:04:07.685Z,84.27
2017-11-28T08:06:35.498Z,84.35
2017-11-28T08:09:03.319Z,84.51
2017-11-28T08:11:30.996Z,84.99
2017-11-28T08:13:58.694Z,84.49
2017-11-28T08:16:26.313Z,83.24
2017-11-28T08:18:54.082Z,84.21
2017-11-28T08:21:21.828Z,84.78
2017-11-28T08:23:49.555Z,83.96
2017-11-28T08:26:17.309Z,84.19
2017-11-28T08:28:45.150Z,84.71
2017-11-28T08:31:12.910Z,84.26
2017-11-28T08:33:40.589Z,83.36
2017-11-28T08:36:08.503Z,84.05
2017-11-28T08:38:36.273Z,84.38
2017-11-28T08:41:04.033Z,84.24
2017-11-28T08:43:31.768Z,84.53
2017-11-28T08:45:59.456Z,84.45
2017-11-28T08:48:27.220Z,84.14
2017-11-28T08:50:54.960Z,84.87
2017-11-28T08:53:22.582Z,84.71
2017-11-28T08:55:50.300Z,83.73
2017-11-28T08:58:18.010Z,84.15
2017-11-28T09:00:45.735Z,83.45
2017-11-28T09:03:13.363Z,83.62
2017-11-28T09:05:41.333Z,83.24
2017-11-28T09:08:09.012Z,82.72
2017-11-28T09:10:36.808Z,82.64
2017-11-28T09:13:04.555Z,82.95
2017-11-28T09:15:32.237Z,82.69
2017-11-28T09:17:59.925Z,83.03
2017-11-28T09:20:27.670Z,83.24
2017-11-28T09:22:55.380Z,82.58
2017-11-28T09:25:23.016Z,82.47
2017-11-28T09:27:50.699Z,82.89
2017-11-28T09:30:18.413Z,82.99
2017-11-28T09:32:46.205Z,83.69
2017-11-28T09:35:14.042Z,83.20
2017-11-28T09:37:41.815Z,83.79
2017-11-28T09:40:09.541Z,83.43
2017-11-28T09:42:37.216Z,82.98
2017-11-28T09:45:04.936Z,82.83
2017-11-28T09:47:32.597Z,82.88
2017-11-28T09:50:00.354Z,83.44
2017-11-28T09:52:27.984Z,82.67
2017-11-28T09:54:55.674Z,81.89
2017-11-28T09:57:23.440Z,81.59
2017-11-28T09:59:51.128Z,82.45
2017-11-28T10:02:18.814Z,82.65
2017-11-28T10:04:46.500Z,82.47
2017-11-28T10:07:14.117Z,80.99
2017-11-28T10:09:41.748Z,80.71
2017-11-28T10:12:09.481Z,80.81
2017-11-28T10:14:37.096Z,81.44
2017-11-28T10:17:04.841Z,81.95
2017-11-28T10:19:32.512Z,80.40
2017-11-28T10:22:00.184Z,80.77
2017-11-28T10:24:27.812Z,80.58
2017-11-28T10:26:55.495Z,80.49
2017-11-28T10:29:23.178Z,80.46
2017-11-28T10:31:50.784Z,80.43
2017-11-28T10:34:18.484Z,80.28
2017-11-28T10:36:46.154Z,79.73
2017-11-28T10:39:13.772Z,80.19
2017-11-28T10:41:41.444Z,79.59
2017-11-28T10:44:09.105Z,80.13
2017-11-28T10:46:36.716Z,79.17
2017-11-28T10:49:04.445Z,78.63
2017-11-28T10:51:32.049Z,79.15
2017-11-28T10:53:59.721Z,79.06
2017-11-28T10:56:27.381Z,78.46
2017-11-28T10:58:55.061Z,79.08
2017-11-28T11:01:22.738Z,79.67
2017-11-28T11:03:50.484Z,78.33
2017-11-28T11:06:18.161Z,78.49
2017-11-28T11:08:45.786Z,78.96
2017-11-28T11:11:13.478Z,78.63
2017-11-28T11:13:41.149Z,77.68
2017-11-28T11:16:08.788Z,78.46
2017-11-28T11:18:36.511Z,78.85
2017-11-28T11:21:04.226Z,78.06
2017-11-28T11:23:31.845Z,77.67
2017-11-28T11:25:59.500Z,77.75
2017-11-28T11:28:27.114Z,78.02
2017-11-28T11:30:54.728Z,77.37
2017-11-28T11:33:22.403Z,78.52
2017-11-28T11:35:50.020Z,78.42
2017-11-28T11:38:17.645Z,78.45
2017-11-28T11:40:45.313Z,77.83
2017-11-28T11:43:12.935Z,78.47
2017-11-28T11:45:40.561Z,78.50
2017-11-28T11:48:08.261Z,77.34
2017-11-28T11:50:35.863Z,77.27
2017-11-28T11:53:03.471Z,77.05
2017-11-28T11:55:31.161Z,76.83
2017-11-28T11:57:58.772Z,76.37
2017-11-28T12:00:26.391Z,76.87
2017-11-28T12:02:54.061Z,76.86
2017-11-28T12:05:21.656Z,76.24
2017-11-28T12:07:49.276Z,76.05
2017-11-28T12:10:17.014Z,77.10
2017-11-28T12:12:44.693Z,76.02
2017-11-28T12:15:12.304Z,76.59
2017-11-28T12:17:40.034Z,76.67
2017-11-28T12:20:07.656Z,76.24
2017-11-28T12:22:35.281Z,76.26
2017-11-28T12:25:02.956Z,76.07
2017-11-28T12:27:30.564Z,75.16
2017-11-28T12:29:58.249Z,76.59
2017-11-28T12:32:25.921Z,75.53
2017-11-28T12:34:53.633Z,75.33
2017-11-28T12:37:21.245Z,76.20
2017-11-28T12:39:48.980Z,76.24
2017-11-28T12:42:16.600Z,76.15
2017-11-28T12:44:44.249Z,75.55
2017-11-28T12:47:11.945Z,76.14
2017-11-28T12:49:39.561Z,75.71
2017-11-28T12:52:07.279Z,74.43
2017-11-28T12:54:34.945Z,74.48
2017-11-28T12:57:02.577Z,74.16
2017-11-28T12:59:30.246Z,72.77
2017-11-28T13:01:57.965Z,73.31
2017-11-28T13:04:25.569Z,73.24
2017-11-28T13:06:53.241Z,72.83
2017-11-28T13:09:20.916Z,73.18
2017-11-28T13:11:48.584Z,72.94
2017-11-28T13:14:16.201Z,73.12
2017-11-28T13:16:43.950Z,72.67
2017-11-28T13:19:11.564Z,71.91
2017-11-28T13:21:39.173Z,71.99
2017-11-28T13:24:06.828Z,71.93
2017-11-28T13:26:34.501Z,71.51
2017-11-28T13:29:02.164Z,71.30
2017-11-28T13:31:29.844Z,72.91
2017-11-28T13:33:57.583Z,71.48
2017-11-28T13:36:25.229Z,71.12
2017-11-28T13:38:52.937Z,71.07
2017-11-28T13:41:20.600Z,71.39
2017-11-28T13:43:48.281Z,70.85
2017-11-28T13:46:16.008Z,70.51
2017-11-28T13:48:43.679Z,70.67
2017-11-28T13:51:11.286Z,70.12
2017-11-28T13:53:38.944Z,70.95
2017-11-28T13:56:06.617Z,71.05
2017-11-28T13:58:34.226Z,70.82
2017-11-28T14:01:01.916Z,70.63
2017-11-28T14:03:29.604Z,70.13
2017-11-28T14:05:57.277Z,69.91
2017-11-28T14:08:25.048Z,70.10
2017-11-28T14:10:52.700Z,70.75
2017-11-28T14:13:20.355Z,70.60
2017-11-28T14:15:48.058Z,71.16
2017-11-28T14:18:15.740Z,69.94
2017-11-28T14:20:53.340Z,69.96
2017-11-28T14:26:40.824Z,71.18
2017-11-28T14:29:12.127Z,71.54
2017-11-28T14:31:43.398Z,71.80
2017-11-28T14:34:11.133Z,71.48
2017-11-28T14:36:40.098Z,72.06
2017-11-28T14:39:08.645Z,72.00
2017-11-28T14:41:38.060Z,73.36
2017-11-28T14:44:07.416Z,72.71
2017-11-28T14:46:35.166Z,73.90
2017-11-28T14:49:02.998Z,73.59
2017-11-28T14:51:36.236Z,73.77
2017-11-28T14:57:25.666Z,73.59
2017-11-28T14:59:58.833Z,74.19
2017-11-28T15:02:32.160Z,73.87
2017-11-28T15:08:08.394Z,74.70
2017-11-28T15:10:39.468Z,73.98
2017-11-28T15:13:13.683Z,74.44
2017-11-28T15:15:41.447Z,74.10
2017-11-28T15:18:25.125Z,73.97
2017-11-28T15:20:58.272Z,74.34
2017-11-28T15:23:28.612Z,74.76
2017-11-28T15:26:14.160Z,75.00
2017-11-28T15:28:41.897Z,74.62
2017-11-28T15:31:09.759Z,74.03
2017-11-28T15:33:37.613Z,74.46
2017-11-28T15:36:05.414Z,74.38
2017-11-28T15:38:33.179Z,74.11
2017-11-28T15:41:00.953Z,74.59
2017-11-28T15:43:28.748Z,74.41
2017-11-28T15:45:56.429Z,73.95
2017-11-28T15:48:25.416Z,73.40
2017-11-28T15:50:53.176Z,73.71
2017-11-28T15:53:20.857Z,73.26
2017-11-28T15:55:48.562Z,73.08
2017-11-28T15:58:16.320Z,73.67
2017-11-28T16:00:44.145Z,74.04
2017-11-28T16:03:11.757Z,73.58
2017-11-28T16:05:39.424Z,74.08
2017-11-28T16:08:07.056Z,74.08
2017-11-28T16:10:34.731Z,73.59
2017-11-28T16:13:02.471Z,73.76
2017-11-28T16:15:30.181Z,73.57
2017-11-28T16:17:57.806Z,74.06
2017-11-28T16:20:25.477Z,73.65
2017-11-28T16:22:53.192Z,73.52
2017-11-28T16:25:20.800Z,73.93
2017-11-28T16:27:48.493Z,73.46
2017-11-28T16:30:16.128Z,74.09
2017-11-28T16:32:43.822Z,74.30
2017-11-28T16:35:11.506Z,73.48
2017-11-28T16:37:39.125Z,74.07
2017-11-28T16:40:06.733Z,73.48
2017-11-28T16:42:34.422Z,74.22
2017-11-28T16:45:02.116Z,73.90
2017-11-28T16:47:29.794Z,73.80
2017-11-28T16:49:57.525Z,73.64
2017-11-28T16:52:25.203Z,73.90
2017-11-28T16:54:52.874Z,73.40
2017-11-28T16:57:20.619Z,73.93
2017-11-28T16:59:48.285Z,73.58
2017-11-28T17:02:15.917Z,73.39
2017-11-28T17:04:43.649Z,74.16
2017-11-28T17:07:11.368Z,74.42
2017-11-28T17:09:39.044Z,74.49
2017-11-28T17:12:06.712Z,75.22
2017-11-28T17:14:34.395Z,74.53
2017-11-28T17:17:02.107Z,73.61
2017-11-28T17:19:29.888Z,74.07
2017-11-28T17:21:57.490Z,74.34
2017-11-28T17:24:25.137Z,74.16
2017-11-28T17:26:52.796Z,74.19
2017-11-28T17:29:20.426Z,73.64
2017-11-28T17:31:48.027Z,74.45
2017-11-28T17:34:15.696Z,73.98
2017-11-28T17:36:43.320Z,73.54
2017-11-28T17:39:11.009Z,74.53
2017-11-28T17:41:38.735Z,74.44
2017-11-28T17:44:06.431Z,75.04
2017-11-28T17:46:34.045Z,74.36
2017-11-28T17:49:01.713Z,74.35
2017-11-28T17:51:29.321Z,74.88
2017-11-28T17:53:57.013Z,74.21
2017-11-28T17:56:24.680Z,73.91
2017-11-28T17:58:52.349Z,74.00
2017-11-28T18:01:20.142Z,73.86
2017-11-28T18:03:47.827Z,74.59
2017-11-28T18:06:15.521Z,74.01
2017-11-28T18:08:43.251Z,74.87
2017-11-28T18:11:11.033Z,74.78
2017-11-28T18:13:38.656Z,74.82
2017-11-28T18:16:06.332Z,75.12
2017-11-28T18:18:34.079Z,75.41
2017-11-28T18:21:01.708Z,75.28
2017-11-28T18:23:29.401Z,75.18
2017-11-28T18:25:57.076Z,74.77
2017-11-28T18:28:24.676Z,74.74
2017-11-28T18:30:52.320Z,74.78
2017-11-28T18:33:19.989Z,74.88
2017-11-28T18:35:47.612Z,74.61
2017-11-28T18:38:15.277Z,74.69
2017-11-28T18:40:43.056Z,74.66
2017-11-28T18:43:10.672Z,74.32
2017-11-28T18:45:38.293Z,73.66
2017-11-28T18:48:06.020Z,74.12
2017-11-28T18:50:33.638Z,73.81
2017-11-28T18:53:01.312Z,73.92
2017-11-28T18:55:29.006Z,73.23
2017-11-28T18:57:56.683Z,73.57
2017-11-28T19:00:28.332Z,73.42
2017-11-28T19:02:56.089Z,73.56
2017-11-28T19:05:23.768Z,73.58
2017-11-28T19:07:51.437Z,73.49
2017-11-28T19:10:19.095Z,73.60
2017-11-28T19:12:46.769Z,73.31
2017-11-28T19:15:14.441Z,73.03
2017-11-28T19:17:42.128Z,73.96
2017-11-28T19:20:09.902Z,73.50
2017-11-28T19:22:37.551Z,73.13
2017-11-28T19:25:05.228Z,72.63
2017-11-28T19:27:32.857Z,73.41
2017-11-28T19:30:00.459Z,73.61
2017-11-28T19:32:28.116Z,73.50
2017-11-28T19:34:55.742Z,73.21
2017-11-28T19:37:23.417Z,73.45
2017-11-28T19:39:51.087Z,72.96
2017-11-28T19:42:18.740Z,73.24
2017-11-28T19:44:46.371Z,73.85
2017-11-28T19:47:14.060Z,73.12
2017-11-28T19:49:41.768Z,73.40
2017-11-28T19:52:09.412Z,73.38
2017-11-28T19:54:37.104Z,73.06
2017-11-28T19:57:04.780Z,73.14
2017-11-28T19:59:32.417Z,73.31
2017-11-28T20:02:00.073Z,73.06
2017-11-28T20:04:27.746Z,73.71
2017-11-28T20:06:55.433Z,73.41
2017-11-28T20:09:23.086Z,73.34
2017-11-28T20:11:50.720Z,73.17
2017-11-28T20:14:18.323Z,73.30
2017-11-28T20:16:46.011Z,73.91
2017-11-28T20:19:13.683Z,73.46
2017-11-28T20:21:41.413Z,73.66
2017-11-28T20:24:09.115Z,73.62
2017-11-28T20:26:36.798Z,74.33
2017-11-28T20:29:04.540Z,73.49
2017-11-28T20:31:32.192Z,73.35
2017-11-28T20:33:59.796Z,73.96
2017-11-28T20:36:27.420Z,73.06
2017-11-28T20:38:55.091Z,73.53
2017-11-28T20:41:22.760Z,73.52
2017-11-28T20:43:50.456Z,73.10
2017-11-28T20:46:18.264Z,73.06
2017-11-28T20:48:45.941Z,73.29
2017-11-28T20:51:13.574Z,73.28
2017-11-28T20:53:41.339Z,73.01
2017-11-28T20:56:09.021Z,73.10
2017-11-28T20:58:36.626Z,73.31
2017-11-28T21:01:04.471Z,73.31
2017-11-28T21:03:32.139Z,73.10
2017-11-28T21:05:59.776Z,73.40
2017-11-28T21:08:27.446Z,73.60
2017-11-28T21:10:55.131Z,73.46
2017-11-28T21:13:22.776Z,73.60
2017-11-28T21:15:50.441Z,73.94
2017-11-28T21:18:18.072Z,73.52
2017-11-28T21:20:45.684Z,73.67
2017-11-28T21:23:13.397Z,74.34
2017-11-28T21:25:41.005Z,74.28
2017-11-28T21:28:08.704Z,74.49
2017-11-28T21:30:36.440Z,74.46
2017-11-28T21:33:04.104Z,74.67
2017-11-28T21:35:31.725Z,74.85
2017-11-28T21:37:59.402Z,74.68
2017-11-28T21:40:27.092Z,75.03
2017-11-28T21:42:54.730Z,75.21
2017-11-28T21:45:22.461Z,74.84
2017-11-28T21:47:50.141Z,75.08
2017-11-28T21:50:17.760Z,75.51
2017-11-28T21:52:45.492Z,76.00
2017-11-28T21:55:13.117Z,75.68
2017-11-28T21:57:40.733Z,75.23
2017-11-28T22:00:08.506Z,75.49
2017-11-28T22:02:36.116Z,75.81
2017-11-28T22:05:04.220Z,75.55
2017-11-28T22:07:31.930Z,75.57
2017-11-28T22:09:59.571Z,75.18
2017-11-28T22:12:27.232Z,75.58
2017-11-28T22:14:54.899Z,75.40
2017-11-28T22:17:22.531Z,75.74
2017-11-28T22:19:50.212Z,75.66
2017-11-28T22:22:17.888Z,75.91
2017-11-28T22:24:45.501Z,76.35
2017-11-28T22:27:13.129Z,76.59
2017-11-28T22:29:40.812Z,76.83
2017-11-28T22:32:08.428Z,77.23
2017-11-28T22:34:36.025Z,77.26
2017-11-28T22:37:03.740Z,77.39
2017-11-28T22:39:31.408Z,77.64
2017-11-28T22:41:59.028Z,77.79
2017-11-28T22:44:26.772Z,77.83
2017-11-28T22:46:54.377Z,77.99
2017-11-28T22:49:22.060Z,78.20
2017-11-28T22:51:49.792Z,78.34
2017-11-28T22:54:17.469Z,78.44
2017-11-28T22:56:45.083Z,78.45
2017-11-28T22:59:12.829Z,78.43
2017-11-28T23:01:40.425Z,78.75
2017-11-28T23:04:08.028Z,78.67
2017-11-28T23:06:35.683Z,79.03
2017-11-28T23:09:03.394Z,79.46
2017-11-28T23:11:31.064Z,79.77
2017-11-28T23:14:01.708Z,80.04
2017-11-28T23:16:29.468Z,80.37
2017-11-28T23:18:57.172Z,80.37
2017-11-28T23:21:25.033Z,80.44
2017-11-28T23:23:52.863Z,80.54
2017-11-28T23:26:20.472Z,80.73
2017-11-28T23:28:48.149Z,80.98
2017-11-28T23:31:15.760Z,81.22
2017-11-28T23:33:43.375Z,81.50
2017-11-28T23:36:11.052Z,81.71
2017-11-28T23:38:38.714Z,81.91
2017-11-28T23:41:06.330Z,82.33
2017-11-28T23:43:34.041Z,82.78
2017-11-28T23:46:01.711Z,82.85
2017-11-28T23:48:29.382Z,83.03
2017-11-28T23:50:57.124Z,83.12
2017-11-28T23:53:24.793Z,83.07
2017-11-28T23:55:52.456Z,82.87
2017-11-28T23:58:20.233Z,82.84
